sensor_id;sensor_type;location;lat;lon;timestamp;pressure;altitude;pressure_sealevel;temperature;humidity
7768;BME280;3928;42.626;23.382;2023-03-20T00:00:16;94491.19;;;9.28;57.15
7768;BME280;3928;42.626;23.382;2023-03-20T00:02:44;94495.56;;;9.15;57.11
7768;BME280;3928;42.626;23.382;2023-03-20T00:05:15;94459.91;;;8.92;57.30
7768;BME280;3928;42.626;23.382;2023-03-20T00:07:44;94484.56;;;9.04;56.75
7768;BME280;3928;42.626;23.382;2023-03-20T00:10:13;94479.50;;;8.95;56.38
7768;BME280;3928;42.626;23.382;2023-03-20T00:12:40;94472.56;;;9.09;55.72
7768;BME280;3928;42.626;23.382;2023-03-20T00:15:21;94475.19;;;9.04;56.78
7768;BME280;3928;42.626;23.382;2023-03-20T00:17:49;94474.44;;;8.92;57.72
7768;BME280;3928;42.626;23.382;2023-03-20T00:20:16;94480.44;;;8.85;57.96
7768;BME280;3928;42.626;23.382;2023-03-20T00:22:43;94471.09;;;8.81;58.01
7768;BME280;3928;42.626;23.382;2023-03-20T00:25:14;94469.44;;;8.76;58.08
7768;BME280;3928;42.626;23.382;2023-03-20T00:27:42;94456.72;;;8.63;57.92
7768;BME280;3928;42.626;23.382;2023-03-20T00:30:18;94458.44;;;8.59;58.22
7768;BME280;3928;42.626;23.382;2023-03-20T00:32:47;94461.97;;;8.43;59.37
7768;BME280;3928;42.626;23.382;2023-03-20T00:35:19;94467.94;;;8.42;59.27
7768;BME280;3928;42.626;23.382;2023-03-20T00:37:46;94456.03;;;8.29;59.35
7768;BME280;3928;42.626;23.382;2023-03-20T00:40:14;94405.09;;;7.98;59.55
7768;BME280;3928;42.626;23.382;2023-03-20T00:42:43;94459.47;;;8.31;59.13
7768;BME280;3928;42.626;23.382;2023-03-20T00:45:14;94454.50;;;7.96;60.45
7768;BME280;3928;42.626;23.382;2023-03-20T00:47:42;94459.59;;;8.06;59.75
7768;BME280;3928;42.626;23.382;2023-03-20T00:50:14;94457.88;;;8.02;59.76
7768;BME280;3928;42.626;23.382;2023-03-20T00:52:42;94453.72;;;7.83;60.20
7768;BME280;3928;42.626;23.382;2023-03-20T00:55:09;94450.25;;;7.98;59.24
7768;BME280;3928;42.626;23.382;2023-03-20T00:57:39;94448.50;;;8.01;58.83
7768;BME280;3928;42.626;23.382;2023-03-20T01:00:20;94464.69;;;8.03;59.18
7768;BME280;3928;42.626;23.382;2023-03-20T01:02:49;94453.72;;;7.84;59.64
7768;BME280;3928;42.626;23.382;2023-03-20T01:05:16;94454.56;;;7.85;59.92
7768;BME280;3928;42.626;23.382;2023-03-20T01:07:43;94444.34;;;7.85;60.40
7768;BME280;3928;42.626;23.382;2023-03-20T01:10:11;94435.78;;;7.89;59.73
7768;BME280;3928;42.626;23.382;2023-03-20T01:12:41;94441.75;;;7.89;59.96
7768;BME280;3928;42.626;23.382;2023-03-20T01:15:20;94444.28;;;7.91;59.88
7768;BME280;3928;42.626;23.382;2023-03-20T01:17:48;94434.13;;;7.79;59.89
7768;BME280;3928;42.626;23.382;2023-03-20T01:20:17;94441.78;;;7.85;60.01
7768;BME280;3928;42.626;23.382;2023-03-20T01:22:44;94439.16;;;7.99;60.00
7768;BME280;3928;42.626;23.382;2023-03-20T01:25:11;94407.66;;;7.97;59.18
7768;BME280;3928;42.626;23.382;2023-03-20T01:27:39;94442.41;;;8.27;58.80
7768;BME280;3928;42.626;23.382;2023-03-20T01:30:19;94440.66;;;8.44;58.34
7768;BME280;3928;42.626;23.382;2023-03-20T01:32:46;94427.91;;;8.32;58.50
7768;BME280;3928;42.626;23.382;2023-03-20T01:35:15;94441.53;;;8.32;59.16
7768;BME280;3928;42.626;23.382;2023-03-20T01:37:44;94441.53;;;8.35;58.72
7768;BME280;3928;42.626;23.382;2023-03-20T01:40:29;94442.38;;;8.37;58.89
7768;BME280;3928;42.626;23.382;2023-03-20T01:42:58;94444.97;;;8.27;59.51
7768;BME280;3928;42.626;23.382;2023-03-20T01:45:30;94439.94;;;8.13;59.86
7768;BME280;3928;42.626;23.382;2023-03-20T01:47:58;94440.78;;;8.18;59.18
7768;BME280;3928;42.626;23.382;2023-03-20T01:50:28;94451.00;;;8.13;59.53
7768;BME280;3928;42.626;23.382;2023-03-20T01:53:05;94451.84;;;8.15;59.54
7768;BME280;3928;42.626;23.382;2023-03-20T01:55:34;94442.50;;;8.11;59.38
7768;BME280;3928;42.626;23.382;2023-03-20T01:58:07;94448.53;;;8.00;59.94
7768;BME280;3928;42.626;23.382;2023-03-20T02:00:35;94446.06;;;7.83;60.49
7768;BME280;3928;42.626;23.382;2023-03-20T02:03:04;94445.22;;;7.76;60.44
7768;BME280;3928;42.626;23.382;2023-03-20T02:05:32;94447.75;;;7.78;60.73
7768;BME280;3928;42.626;23.382;2023-03-20T02:08:08;94446.94;;;7.68;60.69
7768;BME280;3928;42.626;23.382;2023-03-20T02:10:38;94441.84;;;7.67;60.07
7768;BME280;3928;42.626;23.382;2023-03-20T02:13:07;94435.00;;;7.69;59.96
7768;BME280;3928;42.626;23.382;2023-03-20T02:15:50;94440.13;;;7.67;59.40
7768;BME280;3928;42.626;23.382;2023-03-20T02:18:18;94435.88;;;7.74;59.55
7768;BME280;3928;42.626;23.382;2023-03-20T02:20:54;94440.09;;;7.78;58.98
7768;BME280;3928;42.626;23.382;2023-03-20T02:23:48;94441.84;;;7.67;59.15
7768;BME280;3928;42.626;23.382;2023-03-20T02:26:40;94439.31;;;7.57;59.94
7768;BME280;3928;42.626;23.382;2023-03-20T02:32:54;94448.69;;;7.61;60.01
7768;BME280;3928;42.626;23.382;2023-03-20T02:38:51;94445.19;;;7.79;59.62
7768;BME280;3928;42.626;23.382;2023-03-20T02:41:24;94442.63;;;7.87;59.18
7768;BME280;3928;42.626;23.382;2023-03-20T02:44:00;94453.72;;;7.81;59.31
7768;BME280;3928;42.626;23.382;2023-03-20T02:46:37;94452.88;;;7.75;59.81
7768;BME280;3928;42.626;23.382;2023-03-20T02:49:15;94441.00;;;7.65;59.94
7768;BME280;3928;42.626;23.382;2023-03-20T02:51:49;94445.22;;;7.69;59.59
7768;BME280;3928;42.626;23.382;2023-03-20T02:54:26;94436.69;;;7.82;59.02
7768;BME280;3928;42.626;23.382;2023-03-20T02:57:00;94433.22;;;7.94;58.84
7768;BME280;3928;42.626;23.382;2023-03-20T02:59:31;94426.41;;;7.89;59.47
7768;BME280;3928;42.626;23.382;2023-03-20T03:02:05;94429.84;;;7.88;59.34
7768;BME280;3928;42.626;23.382;2023-03-20T03:04:35;94422.97;;;7.98;58.28
7768;BME280;3928;42.626;23.382;2023-03-20T03:07:05;94428.91;;;8.06;58.26
7768;BME280;3928;42.626;23.382;2023-03-20T03:09:38;94424.66;;;8.02;57.73
7768;BME280;3928;42.626;23.382;2023-03-20T03:12:11;94431.53;;;7.94;57.97
7768;BME280;3928;42.626;23.382;2023-03-20T03:14:42;94431.50;;;7.91;58.34
7768;BME280;3928;42.626;23.382;2023-03-20T03:17:12;94425.53;;;7.98;57.84
7768;BME280;3928;42.626;23.382;2023-03-20T03:19:44;94432.44;;;7.76;58.45
7768;BME280;3928;42.626;23.382;2023-03-20T03:22:13;94429.91;;;7.72;59.12
7768;BME280;3928;42.626;23.382;2023-03-20T03:24:44;94425.69;;;7.61;59.05
7768;BME280;3928;42.626;23.382;2023-03-20T03:27:16;94423.19;;;7.45;60.05
7768;BME280;3928;42.626;23.382;2023-03-20T03:29:48;94428.31;;;7.39;60.13
7768;BME280;3928;42.626;23.382;2023-03-20T03:32:24;94429.19;;;7.36;60.81
7768;BME280;3928;42.626;23.382;2023-03-20T03:34:51;94420.66;;;7.40;60.41
7768;BME280;3928;42.626;23.382;2023-03-20T03:37:25;94416.31;;;7.56;60.02
7768;BME280;3928;42.626;23.382;2023-03-20T03:40:02;94420.63;;;7.46;59.23
7768;BME280;3928;42.626;23.382;2023-03-20T03:42:34;94424.88;;;7.47;60.11
7768;BME280;3928;42.626;23.382;2023-03-20T03:45:07;94431.63;;;7.63;59.74
7768;BME280;3928;42.626;23.382;2023-03-20T03:47:38;94431.56;;;7.79;58.53
7768;BME280;3928;42.626;23.382;2023-03-20T03:50:10;94418.78;;;7.85;58.07
7768;BME280;3928;42.626;23.382;2023-03-20T03:52:40;94424.72;;;7.88;58.19
7768;BME280;3928;42.626;23.382;2023-03-20T03:55:12;94429.88;;;7.76;59.08
7768;BME280;3928;42.626;23.382;2023-03-20T03:57:43;94437.63;;;7.59;59.59
7768;BME280;3928;42.626;23.382;2023-03-20T04:00:14;94439.34;;;7.48;60.39
7768;BME280;3928;42.626;23.382;2023-03-20T04:02:44;94435.09;;;7.44;60.34
7768;BME280;3928;42.626;23.382;2023-03-20T04:05:14;94429.13;;;7.45;60.73
7768;BME280;3928;42.626;23.382;2023-03-20T04:07:44;94427.44;;;7.49;60.57
7768;BME280;3928;42.626;23.382;2023-03-20T04:10:13;94422.28;;;7.56;60.42
7768;BME280;3928;42.626;23.382;2023-03-20T04:12:42;94420.63;;;7.46;60.68
7768;BME280;3928;42.626;23.382;2023-03-20T04:15:10;94415.53;;;7.42;60.73
7768;BME280;3928;42.626;23.382;2023-03-20T04:17:37;94419.78;;;7.40;60.65
7768;BME280;3928;42.626;23.382;2023-03-20T04:20:04;94418.06;;;7.43;60.42
7768;BME280;3928;42.626;23.382;2023-03-20T04:22:32;94410.44;;;7.42;60.49
7768;BME280;3928;42.626;23.382;2023-03-20T04:24:59;94417.28;;;7.27;61.09
7768;BME280;3928;42.626;23.382;2023-03-20T04:27:27;94406.25;;;7.22;61.43
7768;BME280;3928;42.626;23.382;2023-03-20T04:29:54;94395.19;;;7.16;61.12
7768;BME280;3928;42.626;23.382;2023-03-20T04:32:21;94412.19;;;7.17;61.96
7768;BME280;3928;42.626;23.382;2023-03-20T04:34:48;94406.28;;;6.90;62.64
7768;BME280;3928;42.626;23.382;2023-03-20T04:37:16;94345.09;;;6.58;62.89
7768;BME280;3928;42.626;23.382;2023-03-20T04:39:43;94399.44;;;7.09;62.39
7768;BME280;3928;42.626;23.382;2023-03-20T04:42:10;94406.22;;;7.21;61.66
7768;BME280;3928;42.626;23.382;2023-03-20T04:44:38;94415.56;;;7.34;61.19
7768;BME280;3928;42.626;23.382;2023-03-20T04:47:05;94391.75;;;7.29;60.67
7768;BME280;3928;42.626;23.382;2023-03-20T04:49:32;94410.41;;;7.52;60.36
7768;BME280;3928;42.626;23.382;2023-03-20T04:51:59;94418.03;;;7.63;60.20
7768;BME280;3928;42.626;23.382;2023-03-20T04:54:26;94409.50;;;7.64;59.60
7768;BME280;3928;42.626;23.382;2023-03-20T04:56:53;94426.47;;;7.76;59.38
7768;BME280;3928;42.626;23.382;2023-03-20T04:59:20;94418.81;;;7.74;58.52
7768;BME280;3928;42.626;23.382;2023-03-20T05:01:48;94431.63;;;7.70;59.45
7768;BME280;3928;42.626;23.382;2023-03-20T05:04:15;94434.19;;;7.63;59.80
7768;BME280;3928;42.626;23.382;2023-03-20T05:06:41;94441.91;;;7.41;61.59
7768;BME280;3928;42.626;23.382;2023-03-20T05:09:12;94444.50;;;7.36;62.02
7768;BME280;3928;42.626;23.382;2023-03-20T05:11:39;94454.69;;;7.47;61.08
7768;BME280;3928;42.626;23.382;2023-03-20T05:14:06;94441.88;;;7.53;60.59
7768;BME280;3928;42.626;23.382;2023-03-20T05:16:33;94453.81;;;7.58;60.34
7768;BME280;3928;42.626;23.382;2023-03-20T05:19:01;94449.47;;;7.77;60.38
7768;BME280;3928;42.626;23.382;2023-03-20T05:21:28;94447.72;;;7.81;59.35
7768;BME280;3928;42.626;23.382;2023-03-20T05:23:55;94448.50;;;8.06;62.38
7768;BME280;3928;42.626;23.382;2023-03-20T05:26:22;94369.41;;;7.80;59.55
7768;BME280;3928;42.626;23.382;2023-03-20T05:28:49;94451.72;;;8.44;58.57
7768;BME280;3928;42.626;23.382;2023-03-20T05:31:15;94444.91;;;8.43;58.09
7768;BME280;3928;42.626;23.382;2023-03-20T05:33:42;94460.16;;;8.57;58.43
7768;BME280;3928;42.626;23.382;2023-03-20T05:36:11;94460.03;;;8.77;71.54
7768;BME280;3928;42.626;23.382;2023-03-20T05:38:37;94461.44;;;9.15;73.25
7768;BME280;3928;42.626;23.382;2023-03-20T05:41:05;94458.53;;;9.50;61.48
7768;BME280;3928;42.626;23.382;2023-03-20T05:43:31;94445.75;;;9.48;55.74
7768;BME280;3928;42.626;23.382;2023-03-20T05:45:58;94426.13;;;9.44;55.92
7768;BME280;3928;42.626;23.382;2023-03-20T05:48:25;94448.34;;;9.44;54.78
7768;BME280;3928;42.626;23.382;2023-03-20T05:50:52;94450.88;;;9.50;55.05
7768;BME280;3928;42.626;23.382;2023-03-20T05:53:20;94456.72;;;9.58;55.88
7768;BME280;3928;42.626;23.382;2023-03-20T05:55:46;94464.31;;;9.68;55.78
7768;BME280;3928;42.626;23.382;2023-03-20T05:58:13;94466.72;;;9.84;55.09
7768;BME280;3928;42.626;23.382;2023-03-20T06:00:40;94462.28;;;9.98;55.44
7768;BME280;3928;42.626;23.382;2023-03-20T06:03:07;94464.66;;;10.13;55.08
7768;BME280;3928;42.626;23.382;2023-03-20T06:05:34;94462.78;;;10.28;54.66
7768;BME280;3928;42.626;23.382;2023-03-20T06:08:01;94458.38;;;10.39;54.21
7768;BME280;3928;42.626;23.382;2023-03-20T06:10:30;94463.38;;;10.48;53.43
7768;BME280;3928;42.626;23.382;2023-03-20T06:12:57;94454.59;;;10.64;53.34
7768;BME280;3928;42.626;23.382;2023-03-20T06:15:25;94449.25;;;10.76;53.03
7768;BME280;3928;42.626;23.382;2023-03-20T06:17:52;94453.38;;;10.88;52.61
7768;BME280;3928;42.626;23.382;2023-03-20T06:20:20;94447.28;;;10.95;52.57
7768;BME280;3928;42.626;23.382;2023-03-20T06:22:47;94456.28;;;11.21;52.93
7768;BME280;3928;42.626;23.382;2023-03-20T06:25:14;94463.66;;;11.40;52.99
7768;BME280;3928;42.626;23.382;2023-03-20T06:27:42;94465.09;;;11.55;52.22
7768;BME280;3928;42.626;23.382;2023-03-20T06:30:10;94470.81;;;11.69;51.78
7768;BME280;3928;42.626;23.382;2023-03-20T06:32:37;94469.78;;;11.81;51.51
7768;BME280;3928;42.626;23.382;2023-03-20T06:35:05;94469.56;;;11.93;50.97
7768;BME280;3928;42.626;23.382;2023-03-20T06:37:32;94464.94;;;12.11;50.98
7768;BME280;3928;42.626;23.382;2023-03-20T06:39:59;94460.41;;;12.23;51.04
7768;BME280;3928;42.626;23.382;2023-03-20T06:42:26;94461.94;;;12.30;49.95
7768;BME280;3928;42.626;23.382;2023-03-20T06:44:54;94467.59;;;12.48;49.34
7768;BME280;3928;42.626;23.382;2023-03-20T06:47:21;94457.22;;;12.51;48.78
7768;BME280;3928;42.626;23.382;2023-03-20T06:49:48;94462.00;;;12.69;48.34
7768;BME280;3928;42.626;23.382;2023-03-20T06:52:16;94461.56;;;12.87;48.19
7768;BME280;3928;42.626;23.382;2023-03-20T06:54:43;94469.78;;;13.03;47.24
7768;BME280;3928;42.626;23.382;2023-03-20T06:57:11;94463.47;;;13.16;47.27
7768;BME280;3928;42.626;23.382;2023-03-20T06:59:37;94457.06;;;13.33;46.38
7768;BME280;3928;42.626;23.382;2023-03-20T07:02:06;94453.25;;;13.48;45.88
7768;BME280;3928;42.626;23.382;2023-03-20T07:04:33;94451.06;;;13.66;45.52
7768;BME280;3928;42.626;23.382;2023-03-20T07:06:59;94454.16;;;13.79;44.37
7768;BME280;3928;42.626;23.382;2023-03-20T07:09:26;94443.50;;;13.91;44.78
7768;BME280;3928;42.626;23.382;2023-03-20T07:11:53;94444.91;;;14.03;43.82
7768;BME280;3928;42.626;23.382;2023-03-20T07:14:20;94444.53;;;14.17;43.26
7768;BME280;3928;42.626;23.382;2023-03-20T07:16:48;94436.53;;;14.26;43.37
7768;BME280;3928;42.626;23.382;2023-03-20T07:19:17;94445.38;;;14.48;43.52
7768;BME280;3928;42.626;23.382;2023-03-20T07:21:44;94401.19;;;14.28;42.44
7768;BME280;3928;42.626;23.382;2023-03-20T07:24:11;94447.72;;;14.84;42.54
7768;BME280;3928;42.626;23.382;2023-03-20T07:26:38;94441.25;;;14.99;41.77
7768;BME280;3928;42.626;23.382;2023-03-20T07:29:05;94439.06;;;15.13;41.45
7768;BME280;3928;42.626;23.382;2023-03-20T07:31:32;94434.31;;;15.26;40.27
7768;BME280;3928;42.626;23.382;2023-03-20T07:33:59;94431.84;;;15.49;40.80
7768;BME280;3928;42.626;23.382;2023-03-20T07:36:27;94379.91;;;15.30;39.85
7768;BME280;3928;42.626;23.382;2023-03-20T07:38:54;94414.66;;;15.73;39.54
7768;BME280;3928;42.626;23.382;2023-03-20T07:41:20;94449.03;;;16.01;39.08
7768;BME280;3928;42.626;23.382;2023-03-20T07:43:47;94446.16;;;16.09;38.57
7768;BME280;3928;42.626;23.382;2023-03-20T07:46:14;94441.69;;;16.14;38.72
7768;BME280;3928;42.626;23.382;2023-03-20T07:48:41;94441.13;;;16.29;38.26
7768;BME280;3928;42.626;23.382;2023-03-20T07:51:08;94436.19;;;16.47;38.13
7768;BME280;3928;42.626;23.382;2023-03-20T07:53:36;94433.97;;;16.59;37.52
7768;BME280;3928;42.626;23.382;2023-03-20T07:56:03;94448.97;;;16.75;37.76
7768;BME280;3928;42.626;23.382;2023-03-20T07:58:29;94440.53;;;16.91;37.42
7768;BME280;3928;42.626;23.382;2023-03-20T08:00:56;94438.13;;;17.09;37.22
7768;BME280;3928;42.626;23.382;2023-03-20T08:03:23;94437.63;;;17.21;36.71
7768;BME280;3928;42.626;23.382;2023-03-20T08:05:50;94450.25;;;17.30;36.21
7768;BME280;3928;42.626;23.382;2023-03-20T08:08:17;94454.88;;;17.44;35.83
7768;BME280;3928;42.626;23.382;2023-03-20T08:10:45;94451.56;;;17.61;36.46
7768;BME280;3928;42.626;23.382;2023-03-20T08:13:12;94452.78;;;17.74;35.93
7768;BME280;3928;42.626;23.382;2023-03-20T08:15:39;94424.88;;;17.79;36.04
7768;BME280;3928;42.626;23.382;2023-03-20T08:18:06;94442.56;;;18.10;35.46
7768;BME280;3928;42.626;23.382;2023-03-20T08:20:33;94450.00;;;18.38;34.64
7768;BME280;3928;42.626;23.382;2023-03-20T08:23:00;94445.66;;;18.57;34.56
7768;BME280;3928;42.626;23.382;2023-03-20T08:25:26;94447.31;;;18.79;33.88
7768;BME280;3928;42.626;23.382;2023-03-20T08:27:58;94452.44;;;18.99;33.87
7768;BME280;3928;42.626;23.382;2023-03-20T08:30:25;94449.59;;;19.22;33.08
7768;BME280;3928;42.626;23.382;2023-03-20T08:32:52;94449.75;;;19.37;33.54
7768;BME280;3928;42.626;23.382;2023-03-20T08:35:19;94455.47;;;19.62;33.08
7768;BME280;3928;42.626;23.382;2023-03-20T08:37:46;94397.09;;;19.32;32.91
7768;BME280;3928;42.626;23.382;2023-03-20T08:40:13;94443.53;;;19.75;34.01
7768;BME280;3928;42.626;23.382;2023-03-20T08:42:40;94460.09;;;19.92;35.16
7768;BME280;3928;42.626;23.382;2023-03-20T08:45:09;94450.56;;;20.08;33.33
7768;BME280;3928;42.626;23.382;2023-03-20T08:47:36;94445.84;;;20.32;33.71
7768;BME280;3928;42.626;23.382;2023-03-20T08:50:04;94437.53;;;20.58;33.52
7768;BME280;3928;42.626;23.382;2023-03-20T08:52:31;94440.94;;;20.76;32.25
7768;BME280;3928;42.626;23.382;2023-03-20T08:54:58;94438.50;;;21.05;33.49
7768;BME280;3928;42.626;23.382;2023-03-20T08:57:25;94440.59;;;21.29;31.51
7768;BME280;3928;42.626;23.382;2023-03-20T08:59:51;94423.16;;;21.30;30.35
7768;BME280;3928;42.626;23.382;2023-03-20T09:02:20;94436.81;;;21.19;32.01
7768;BME280;3928;42.626;23.382;2023-03-20T09:04:46;94413.25;;;21.21;31.55
7768;BME280;3928;42.626;23.382;2023-03-20T09:07:13;94431.88;;;21.60;32.49
7768;BME280;3928;42.626;23.382;2023-03-20T09:09:40;94426.38;;;21.95;30.55
7768;BME280;3928;42.626;23.382;2023-03-20T09:12:07;94422.78;;;22.12;29.71
7768;BME280;3928;42.626;23.382;2023-03-20T09:14:34;94425.69;;;22.36;30.72
7768;BME280;3928;42.626;23.382;2023-03-20T09:17:02;94419.81;;;22.61;29.31
7768;BME280;3928;42.626;23.382;2023-03-20T09:19:31;94410.75;;;22.66;29.20
7768;BME280;3928;42.626;23.382;2023-03-20T09:21:59;94415.31;;;22.77;29.25
7768;BME280;3928;42.626;23.382;2023-03-20T09:24:26;94424.22;;;22.89;28.89
7768;BME280;3928;42.626;23.382;2023-03-20T09:26:53;94408.94;;;22.95;28.86
7768;BME280;3928;42.626;23.382;2023-03-20T09:29:20;94417.59;;;23.24;28.21
7768;BME280;3928;42.626;23.382;2023-03-20T09:31:47;94410.16;;;23.31;28.12
7768;BME280;3928;42.626;23.382;2023-03-20T09:34:14;94409.25;;;23.59;28.04
7768;BME280;3928;42.626;23.382;2023-03-20T09:36:42;94405.00;;;23.83;27.74
7768;BME280;3928;42.626;23.382;2023-03-20T09:39:09;94409.44;;;23.96;27.25
7768;BME280;3928;42.626;23.382;2023-03-20T09:41:36;94408.72;;;24.19;26.85
7768;BME280;3928;42.626;23.382;2023-03-20T09:44:14;94401.16;;;24.27;26.74
7768;BME280;3928;42.626;23.382;2023-03-20T09:47:04;94402.03;;;24.40;26.04
7768;BME280;3928;42.626;23.382;2023-03-20T09:49:44;94385.00;;;24.46;25.43
7768;BME280;3928;42.626;23.382;2023-03-20T09:52:21;94379.78;;;24.33;25.65
7768;BME280;3928;42.626;23.382;2023-03-20T09:54:51;94374.84;;;24.41;26.10
7768;BME280;3928;42.626;23.382;2023-03-20T09:57:21;94361.78;;;24.65;25.81
7768;BME280;3928;42.626;23.382;2023-03-20T09:59:54;94359.09;;;24.91;25.82
7768;BME280;3928;42.626;23.382;2023-03-20T10:02:33;94350.88;;;24.95;25.52
7768;BME280;3928;42.626;23.382;2023-03-20T10:05:03;94349.22;;;24.94;24.93
7768;BME280;3928;42.626;23.382;2023-03-20T10:07:42;94332.00;;;24.90;25.00
7768;BME280;3928;42.626;23.382;2023-03-20T10:10:11;94337.59;;;25.33;24.83
7768;BME280;3928;42.626;23.382;2023-03-20T10:12:56;94333.75;;;25.50;25.07
7768;BME280;3928;42.626;23.382;2023-03-20T10:15:35;94330.25;;;25.74;24.61
7768;BME280;3928;42.626;23.382;2023-03-20T10:18:09;94311.38;;;25.80;24.72
7768;BME280;3928;42.626;23.382;2023-03-20T10:20:42;94328.88;;;25.68;24.59
7768;BME280;3928;42.626;23.382;2023-03-20T10:23:19;94327.63;;;25.74;24.90
7768;BME280;3928;42.626;23.382;2023-03-20T10:25:50;94322.66;;;25.93;24.70
7768;BME280;3928;42.626;23.382;2023-03-20T10:28:21;94326.50;;;26.22;24.07
7768;BME280;3928;42.626;23.382;2023-03-20T10:30:59;94319.59;;;26.55;23.56
7768;BME280;3928;42.626;23.382;2023-03-20T10:33:44;94321.00;;;26.81;23.10
7768;BME280;3928;42.626;23.382;2023-03-20T10:36:25;94314.97;;;27.13;22.61
7768;BME280;3928;42.626;23.382;2023-03-20T10:39:00;94311.03;;;27.39;22.48
7768;BME280;3928;42.626;23.382;2023-03-20T10:41:32;94310.69;;;27.65;22.01
7768;BME280;3928;42.626;23.382;2023-03-20T10:44:01;94299.13;;;27.77;22.04
7768;BME280;3928;42.626;23.382;2023-03-20T10:46:30;94301.19;;;27.94;21.96
7768;BME280;3928;42.626;23.382;2023-03-20T10:49:00;94302.06;;;28.05;21.49
7768;BME280;3928;42.626;23.382;2023-03-20T10:51:36;94293.13;;;28.26;21.89
7768;BME280;3928;42.626;23.382;2023-03-20T10:54:12;94292.84;;;28.50;20.64
7768;BME280;3928;42.626;23.382;2023-03-20T10:56:46;94286.66;;;28.71;20.72
7768;BME280;3928;42.626;23.382;2023-03-20T10:59:19;94282.44;;;28.99;20.83
7768;BME280;3928;42.626;23.382;2023-03-20T11:01:47;94288.28;;;29.22;20.40
7768;BME280;3928;42.626;23.382;2023-03-20T11:04:14;94281.06;;;29.43;21.04
7768;BME280;3928;42.626;23.382;2023-03-20T11:06:47;94283.59;;;29.64;20.41
7768;BME280;3928;42.626;23.382;2023-03-20T11:09:20;94243.38;;;29.60;20.25
7768;BME280;3928;42.626;23.382;2023-03-20T11:11:48;94261.69;;;29.91;20.08
7768;BME280;3928;42.626;23.382;2023-03-20T11:14:18;94262.06;;;30.06;19.92
7768;BME280;3928;42.626;23.382;2023-03-20T11:16:48;94260.69;;;30.11;20.03
7768;BME280;3928;42.626;23.382;2023-03-20T11:19:15;94238.81;;;29.99;19.11
7768;BME280;3928;42.626;23.382;2023-03-20T11:21:46;94243.03;;;29.83;19.20
7768;BME280;3928;42.626;23.382;2023-03-20T11:24:28;94251.38;;;29.88;19.93
7768;BME280;3928;42.626;23.382;2023-03-20T11:27:05;94244.63;;;30.22;19.67
7768;BME280;3928;42.626;23.382;2023-03-20T11:29:32;94234.91;;;30.41;19.18
7768;BME280;3928;42.626;23.382;2023-03-20T11:32:04;94225.78;;;30.53;19.27
7768;BME280;3928;42.626;23.382;2023-03-20T11:34:35;94232.78;;;30.81;18.53
7768;BME280;3928;42.626;23.382;2023-03-20T11:37:06;94231.78;;;31.00;17.85
7768;BME280;3928;42.626;23.382;2023-03-20T11:39:56;94222.53;;;30.87;18.54
7768;BME280;3928;42.626;23.382;2023-03-20T11:42:25;94217.75;;;30.72;19.07
7768;BME280;3928;42.626;23.382;2023-03-20T11:44:57;94213.75;;;30.68;18.59
7768;BME280;3928;42.626;23.382;2023-03-20T11:47:26;94191.75;;;30.58;19.47
7768;BME280;3928;42.626;23.382;2023-03-20T11:49:55;94200.41;;;30.78;19.28
7768;BME280;3928;42.626;23.382;2023-03-20T11:52:24;94203.47;;;31.01;19.31
7768;BME280;3928;42.626;23.382;2023-03-20T11:54:56;94188.53;;;30.54;19.09
7768;BME280;3928;42.626;23.382;2023-03-20T11:57:32;94181.66;;;30.71;19.20
7768;BME280;3928;42.626;23.382;2023-03-20T12:00:03;94196.00;;;31.14;18.83
7768;BME280;3928;42.626;23.382;2023-03-20T12:02:30;94187.94;;;31.41;18.10
7768;BME280;3928;42.626;23.382;2023-03-20T12:04:58;94193.44;;;31.66;18.17
7768;BME280;3928;42.626;23.382;2023-03-20T12:07:29;94169.88;;;31.89;17.70
7768;BME280;3928;42.626;23.382;2023-03-20T12:10:02;94183.44;;;32.20;18.44
7768;BME280;3928;42.626;23.382;2023-03-20T12:12:36;94182.91;;;32.42;17.51
7768;BME280;3928;42.626;23.382;2023-03-20T12:15:13;94179.34;;;32.60;17.32
7768;BME280;3928;42.626;23.382;2023-03-20T12:17:46;94173.69;;;32.63;16.55
7768;BME280;3928;42.626;23.382;2023-03-20T12:20:27;94165.06;;;32.77;16.29
7768;BME280;3928;42.626;23.382;2023-03-20T12:23:01;94166.81;;;32.44;16.90
7768;BME280;3928;42.626;23.382;2023-03-20T12:25:35;94163.53;;;32.50;17.24
7768;BME280;3928;42.626;23.382;2023-03-20T12:28:04;94162.38;;;32.52;16.17
7768;BME280;3928;42.626;23.382;2023-03-20T12:30:47;94152.41;;;32.46;16.48
7768;BME280;3928;42.626;23.382;2023-03-20T12:33:19;94157.16;;;32.85;17.19
7768;BME280;3928;42.626;23.382;2023-03-20T12:35:51;94154.00;;;33.14;16.88
7768;BME280;3928;42.626;23.382;2023-03-20T12:38:26;94146.88;;;33.47;17.24
7768;BME280;3928;42.626;23.382;2023-03-20T12:40:59;94137.03;;;32.91;15.49
7768;BME280;3928;42.626;23.382;2023-03-20T12:43:36;94149.38;;;32.41;15.61
7768;BME280;3928;42.626;23.382;2023-03-20T12:46:21;94140.47;;;32.58;16.66
7768;BME280;3928;42.626;23.382;2023-03-20T12:48:55;94146.59;;;32.67;16.29
7768;BME280;3928;42.626;23.382;2023-03-20T12:51:31;94145.53;;;32.94;16.74
7768;BME280;3928;42.626;23.382;2023-03-20T12:54:14;94134.56;;;33.30;15.98
7768;BME280;3928;42.626;23.382;2023-03-20T12:56:58;94135.56;;;33.53;15.29
7768;BME280;3928;42.626;23.382;2023-03-20T12:59:35;94125.75;;;33.37;15.52
7768;BME280;3928;42.626;23.382;2023-03-20T13:02:17;94121.28;;;33.38;15.45
7768;BME280;3928;42.626;23.382;2023-03-20T13:04:54;94120.94;;;33.49;15.98
7768;BME280;3928;42.626;23.382;2023-03-20T13:07:32;94123.59;;;33.57;15.57
7768;BME280;3928;42.626;23.382;2023-03-20T13:10:20;94117.72;;;33.70;15.08
7768;BME280;3928;42.626;23.382;2023-03-20T13:13:01;94114.91;;;33.88;14.55
7768;BME280;3928;42.626;23.382;2023-03-20T13:15:43;94104.03;;;33.97;15.14
7768;BME280;3928;42.626;23.382;2023-03-20T13:18:18;94107.47;;;34.14;15.41
7768;BME280;3928;42.626;23.382;2023-03-20T13:20:50;94094.81;;;34.16;14.62
7768;BME280;3928;42.626;23.382;2023-03-20T13:23:22;94098.69;;;33.18;14.12
7768;BME280;3928;42.626;23.382;2023-03-20T13:26:13;94085.38;;;33.01;14.74
7768;BME280;3928;42.626;23.382;2023-03-20T13:28:50;94094.97;;;33.27;15.85
7768;BME280;3928;42.626;23.382;2023-03-20T13:31:30;94076.41;;;33.35;15.67
7768;BME280;3928;42.626;23.382;2023-03-20T13:34:08;94083.19;;;33.46;15.03
7768;BME280;3928;42.626;23.382;2023-03-20T13:36:49;94078.34;;;33.57;15.34
7768;BME280;3928;42.626;23.382;2023-03-20T13:39:20;94070.72;;;33.54;14.44